createdAt,value
2022-10-19T00:00:12.158Z,98454.60
2022-10-19T00:02:38.881Z,98451.40
2022-10-19T00:05:06.361Z,98450.40
2022-10-19T00:07:34.821Z,98455.20
2022-10-19T00:10:01.927Z,98460.40
2022-10-19T00:12:28.731Z,98459.60
2022-10-19T00:14:55.711Z,98457.00
2022-10-19T00:17:22.840Z,98452.40
2022-10-19T00:19:49.651Z,98452.80
2022-10-19T00:22:16.522Z,98453.00
2022-10-19T00:24:43.466Z,98453.00
2022-10-19T00:27:10.688Z,98455.40
2022-10-19T00:29:38.699Z,98453.00
2022-10-19T00:32:05.814Z,98452.20
2022-10-19T00:34:32.687Z,98450.80
2022-10-19T00:36:59.478Z,98447.80
2022-10-19T00:39:26.349Z,98447.80
2022-10-19T00:41:53.195Z,98449.60
2022-10-19T00:44:20.047Z,98450.20
2022-10-19T00:46:53.227Z,98450.20
2022-10-19T00:49:35.164Z,98449.00
2022-10-19T00:52:08.240Z,98451.00
2022-10-19T00:54:39.501Z,98453.80
2022-10-19T00:57:08.137Z,98447.20
2022-10-19T00:59:37.027Z,98447.00
2022-10-19T01:02:06.541Z,98445.00
2022-10-19T01:04:38.572Z,98437.00
2022-10-19T01:07:08.246Z,98434.00
2022-10-19T01:09:35.412Z,98430.60
2022-10-19T01:12:31.481Z,98430.60
2022-10-19T01:15:24.186Z,98430.40
2022-10-19T01:18:02.544Z,98428.20
2022-10-19T01:21:20.294Z,98429.20
2022-10-19T01:24:39.792Z,98430.60
2022-10-19T01:27:29.653Z,98426.20
2022-10-19T01:30:28.882Z,98432.00
2022-10-19T01:33:59.391Z,98429.40
2022-10-19T01:36:38.155Z,98428.40
2022-10-19T01:39:38.335Z,98421.40
2022-10-19T01:42:17.883Z,98422.80
2022-10-19T01:44:52.934Z,98428.40
2022-10-19T01:47:27.524Z,98426.20
2022-10-19T01:50:00.841Z,98429.80
2022-10-19T01:52:29.335Z,98432.00
2022-10-19T01:55:00.806Z,98433.20
2022-10-19T01:57:46.440Z,98432.00
2022-10-19T02:00:17.002Z,98431.60
2022-10-19T02:02:50.352Z,98428.60
2022-10-19T02:05:22.039Z,98424.00
2022-10-19T02:08:00.116Z,98426.00
2022-10-19T02:10:29.202Z,98426.00
2022-10-19T02:12:58.311Z,98424.60
2022-10-19T02:15:29.134Z,98425.20
2022-10-19T02:17:59.906Z,98428.20
2022-10-19T02:20:28.967Z,98430.60
2022-10-19T02:22:56.318Z,98427.60
2022-10-19T02:25:25.111Z,98424.60
2022-10-19T02:27:52.887Z,98428.80
2022-10-19T02:30:22.405Z,98424.40
2022-10-19T02:32:50.676Z,98420.40
2022-10-19T02:35:18.010Z,98417.20
2022-10-19T02:37:45.464Z,98415.80
2022-10-19T02:40:13.041Z,98413.40
2022-10-19T02:42:58.423Z,98412.20
2022-10-19T02:45:35.395Z,98410.80
2022-10-19T02:48:18.007Z,98404.00
2022-10-19T02:50:47.811Z,98409.80
2022-10-19T02:53:16.582Z,98416.80
2022-10-19T02:55:44.280Z,98413.80
2022-10-19T02:58:11.082Z,98413.60
2022-10-19T03:00:38.128Z,98413.60
2022-10-19T03:03:04.981Z,98413.80
2022-10-19T03:05:32.356Z,98408.60
2022-10-19T03:07:59.138Z,98408.00
2022-10-19T03:10:26.142Z,98410.60
2022-10-19T03:12:53.085Z,98410.00
2022-10-19T03:15:20.337Z,98406.80
2022-10-19T03:17:47.126Z,98408.40
2022-10-19T03:20:14.021Z,98408.80
2022-10-19T03:22:40.898Z,98408.20
2022-10-19T03:25:08.562Z,98410.00
2022-10-19T03:27:35.833Z,98406.40
2022-10-19T03:30:03.260Z,98406.20
2022-10-19T03:32:30.083Z,98402.40
2022-10-19T03:34:56.893Z,98406.00
2022-10-19T03:37:23.862Z,98402.80
2022-10-19T03:39:50.688Z,98404.60
2022-10-19T03:42:17.535Z,98407.20
2022-10-19T03:44:44.410Z,98407.80
2022-10-19T03:47:11.233Z,98407.40
2022-10-19T03:49:40.222Z,98406.20
2022-10-19T03:52:09.323Z,98404.00
2022-10-19T03:54:36.311Z,98399.20
2022-10-19T03:57:03.185Z,98400.20
2022-10-19T03:59:30.015Z,98396.00
2022-10-19T04:01:56.796Z,98395.20
2022-10-19T04:04:23.941Z,98394.20
2022-10-19T04:06:51.390Z,98398.00
2022-10-19T04:09:21.510Z,98395.80
2022-10-19T04:11:49.589Z,98394.40
2022-10-19T04:14:27.194Z,98392.80
2022-10-19T04:17:03.982Z,98392.40
2022-10-19T04:19:31.847Z,98391.80
2022-10-19T04:21:58.709Z,98391.00
2022-10-19T04:24:25.504Z,98389.00
2022-10-19T04:26:55.312Z,98393.20
2022-10-19T04:29:29.660Z,98390.60
2022-10-19T04:31:59.057Z,98384.80
2022-10-19T04:34:25.870Z,98387.00
2022-10-19T04:36:54.083Z,98379.80
2022-10-19T04:39:21.168Z,98379.40
2022-10-19T04:41:48.028Z,98376.80
2022-10-19T04:44:15.658Z,98371.80
2022-10-19T04:46:42.549Z,98368.80
2022-10-19T04:49:09.393Z,98360.80
2022-10-19T04:51:36.130Z,98360.60
2022-10-19T04:54:04.841Z,98357.80
2022-10-19T04:56:32.509Z,98357.20
2022-10-19T04:59:00.613Z,98352.80
2022-10-19T05:01:30.664Z,98354.40
2022-10-19T05:04:03.032Z,98353.60
2022-10-19T05:06:31.572Z,98348.80
2022-10-19T05:08:59.796Z,98350.40
2022-10-19T05:11:27.488Z,98350.00
2022-10-19T05:13:54.354Z,98350.20
2022-10-19T05:16:23.500Z,98348.00
2022-10-19T05:18:53.269Z,98350.40
2022-10-19T05:21:21.897Z,98346.20
2022-10-19T05:23:53.571Z,98348.00
2022-10-19T05:26:24.715Z,98349.60
2022-10-19T05:28:59.406Z,98351.00
2022-10-19T05:31:30.241Z,98356.20
2022-10-19T05:33:57.711Z,98354.80
2022-10-19T05:36:34.596Z,98352.00
2022-10-19T05:39:09.347Z,98344.20
2022-10-19T05:41:36.170Z,98355.20
2022-10-19T05:44:05.699Z,98357.00
2022-10-19T05:46:34.734Z,98356.20
2022-10-19T05:49:01.578Z,98356.00
2022-10-19T05:51:29.143Z,98354.80
2022-10-19T05:53:57.706Z,98355.40
2022-10-19T05:56:28.468Z,98346.20
2022-10-19T05:58:58.062Z,98362.60
2022-10-19T06:01:26.125Z,98362.20
2022-10-19T06:03:55.149Z,98366.80
2022-10-19T06:06:23.112Z,98369.80
2022-10-19T06:08:51.478Z,98371.00
2022-10-19T06:11:23.176Z,98368.60
2022-10-19T06:13:54.224Z,98372.20
2022-10-19T06:16:24.100Z,98373.80
2022-10-19T06:18:52.995Z,98379.00
2022-10-19T06:21:23.132Z,98381.20
2022-10-19T06:23:52.663Z,98386.20
2022-10-19T06:26:20.926Z,98391.00
2022-10-19T06:28:49.169Z,98393.60
2022-10-19T06:31:17.160Z,98392.60
2022-10-19T06:33:48.653Z,98396.60
2022-10-19T06:36:20.834Z,98399.60
2022-10-19T06:38:49.026Z,98403.00
2022-10-19T06:41:17.315Z,98401.00
2022-10-19T06:43:44.560Z,98403.80
2022-10-19T06:46:17.491Z,98408.20
2022-10-19T06:48:44.406Z,98409.00
2022-10-19T06:51:13.278Z,98406.80
2022-10-19T06:53:40.122Z,98407.80
2022-10-19T06:56:07.678Z,98403.00
2022-10-19T06:58:39.039Z,98409.60
2022-10-19T07:01:09.042Z,98411.20
2022-10-19T07:03:37.573Z,98408.80
2022-10-19T07:06:08.620Z,98412.00
2022-10-19T07:08:38.070Z,98413.20
2022-10-19T07:11:09.655Z,98409.80
2022-10-19T07:13:36.791Z,98416.00
2022-10-19T07:16:14.560Z,98416.60
2022-10-19T07:18:45.399Z,98414.80
2022-10-19T07:21:15.829Z,98414.80
2022-10-19T07:23:45.637Z,98409.60
2022-10-19T07:26:28.460Z,98406.80
2022-10-19T07:28:58.042Z,98403.20
2022-10-19T07:31:27.408Z,98404.40
2022-10-19T07:33:57.163Z,98412.00
2022-10-19T07:36:25.796Z,98418.40
2022-10-19T07:38:53.014Z,98426.20
2022-10-19T07:41:23.526Z,98425.40
2022-10-19T07:43:51.615Z,98430.80
2022-10-19T07:46:25.417Z,98432.80
2022-10-19T07:48:53.586Z,98434.00
2022-10-19T07:51:23.096Z,98433.60
2022-10-19T07:53:50.324Z,98435.40
2022-10-19T07:56:28.323Z,98434.40
2022-10-19T07:58:58.903Z,98436.60
2022-10-19T08:01:35.553Z,98434.20
2022-10-19T08:06:49.824Z,98436.60
2022-10-19T08:09:40.205Z,98435.20
2022-10-19T08:12:06.000Z,98423.40
2022-10-19T08:14:33.390Z,98437.20
2022-10-19T08:17:01.580Z,98439.00
2022-10-19T08:19:28.402Z,98434.80
2022-10-19T08:21:55.348Z,98437.80
2022-10-19T08:24:22.206Z,98434.60
2022-10-19T08:26:51.397Z,98435.80
2022-10-19T08:29:21.208Z,98436.00
2022-10-19T08:31:50.295Z,98435.40
2022-10-19T08:34:17.959Z,98432.60
2022-10-19T08:36:45.117Z,98427.60
2022-10-19T08:39:13.583Z,98428.00
2022-10-19T08:41:40.386Z,98425.60
2022-10-19T08:44:48.158Z,98429.80
2022-10-19T08:47:32.585Z,98433.20
2022-10-19T08:50:00.546Z,98435.00
2022-10-19T08:52:36.099Z,98436.00
2022-10-19T08:55:15.199Z,98437.80
2022-10-19T08:57:57.784Z,98433.20
2022-10-19T09:00:43.375Z,98437.80
2022-10-19T09:03:57.726Z,98434.40
2022-10-19T09:06:50.051Z,98434.40
2022-10-19T09:09:20.886Z,98435.20
2022-10-19T09:11:52.847Z,98434.20
2022-10-19T09:14:38.724Z,98437.40
2022-10-19T09:17:16.973Z,98437.40
2022-10-19T09:19:43.959Z,98436.60
2022-10-19T09:22:25.548Z,98440.20
2022-10-19T09:24:59.182Z,98439.60
2022-10-19T09:27:35.619Z,98440.20
2022-10-19T09:30:14.800Z,98442.20
2022-10-19T09:32:42.421Z,98436.60
2022-10-19T09:35:18.236Z,98439.80
2022-10-19T09:37:49.434Z,98439.60
2022-10-19T09:40:30.275Z,98441.00
2022-10-19T09:42:59.383Z,98447.20
2022-10-19T09:45:40.647Z,98444.80
2022-10-19T09:48:23.587Z,98440.80
2022-10-19T09:50:59.373Z,98440.40
2022-10-19T09:53:28.303Z,98449.00
2022-10-19T09:56:03.913Z,98450.40
2022-10-19T09:58:33.112Z,98452.40
2022-10-19T10:01:03.371Z,98449.20
2022-10-19T10:03:43.798Z,98445.80
2022-10-19T10:06:18.059Z,98445.80
2022-10-19T10:08:58.095Z,98437.00
2022-10-19T10:11:38.316Z,98440.80
2022-10-19T10:14:27.044Z,98439.20
2022-10-19T10:17:03.314Z,98438.20
2022-10-19T10:19:33.500Z,98440.60
2022-10-19T10:22:00.763Z,98438.80
2022-10-19T10:24:30.909Z,98440.40
2022-10-19T10:27:02.467Z,98437.80
2022-10-19T10:29:39.303Z,98429.20
2022-10-19T10:32:19.405Z,98421.60
2022-10-19T10:35:02.670Z,98418.20
2022-10-19T10:37:43.197Z,98415.80
2022-10-19T10:40:29.549Z,98413.00
2022-10-19T10:43:08.876Z,98419.00
2022-10-19T10:45:45.219Z,98412.80
2022-10-19T10:48:53.428Z,98413.80
2022-10-19T10:51:43.921Z,98410.40
2022-10-19T10:54:17.292Z,98402.60
2022-10-19T10:57:18.746Z,98396.80
2022-10-19T11:00:12.375Z,98398.40
2022-10-19T11:03:16.595Z,98392.80
2022-10-19T11:05:55.584Z,98392.80
2022-10-19T11:08:51.237Z,98386.00
2022-10-19T11:11:30.677Z,98372.20
2022-10-19T11:14:26.499Z,98372.40
2022-10-19T11:16:57.627Z,98375.20
2022-10-19T11:19:34.110Z,98371.40
2022-10-19T11:22:42.919Z,98368.80
2022-10-19T11:25:34.765Z,98368.80
2022-10-19T11:28:42.782Z,98368.20
2022-10-19T11:31:29.680Z,98355.80
2022-10-19T11:34:06.153Z,98357.20
2022-10-19T11:36:39.941Z,98353.40
2022-10-19T11:39:48.137Z,98351.40
2022-10-19T11:43:02.764Z,98351.60
2022-10-19T11:45:58.624Z,98352.80
2022-10-19T11:49:04.865Z,98348.40
2022-10-19T11:51:49.885Z,98344.40
2022-10-19T11:54:36.914Z,98339.00
2022-10-19T11:57:16.116Z,98336.00
2022-10-19T12:00:27.280Z,98334.80
2022-10-19T12:03:30.399Z,98330.40
2022-10-19T12:06:25.515Z,98326.60
2022-10-19T12:09:20.159Z,98327.00
2022-10-19T12:12:32.805Z,98325.80
2022-10-19T12:15:12.155Z,98324.80
2022-10-19T12:17:44.007Z,98323.40
2022-10-19T12:20:40.047Z,98319.20
2022-10-19T12:23:34.823Z,98315.60
2022-10-19T12:26:10.540Z,98307.60
2022-10-19T12:28:43.295Z,98307.40
2022-10-19T12:31:12.165Z,98301.00
2022-10-19T12:34:16.487Z,98298.60
2022-10-19T12:37:08.604Z,98299.00
2022-10-19T12:40:19.747Z,98294.80
2022-10-19T12:43:05.077Z,98288.00
2022-10-19T12:45:44.107Z,98287.40
2022-10-19T12:48:19.067Z,98284.60
2022-10-19T12:50:48.688Z,98282.00
2022-10-19T12:53:49.337Z,98272.60
2022-10-19T12:56:26.551Z,98270.20
2022-10-19T12:59:01.596Z,98265.60
2022-10-19T13:01:44.420Z,98267.40
2022-10-19T13:04:18.095Z,98264.60
2022-10-19T13:06:58.979Z,98260.40
2022-10-19T13:09:36.913Z,98256.80
2022-10-19T13:12:19.515Z,98256.80
2022-10-19T13:14:50.663Z,98255.00
2022-10-19T13:17:49.149Z,98252.00
2022-10-19T13:20:16.418Z,98252.60
2022-10-19T13:22:49.113Z,98246.60
2022-10-19T13:25:27.957Z,98247.40
2022-10-19T13:28:22.785Z,98243.60
2022-10-19T13:30:49.627Z,98246.80
2022-10-19T13:33:25.663Z,98245.60
2022-10-19T13:36:02.708Z,98247.60
2022-10-19T13:41:45.487Z,98246.80
2022-10-19T13:44:25.418Z,98243.80
2022-10-19T13:46:55.305Z,98240.20
2022-10-19T13:50:02.364Z,98236.80
2022-10-19T13:52:55.797Z,98242.20
2022-10-19T13:55:54.095Z,98245.20
2022-10-19T13:59:35.603Z,98244.80
2022-10-19T14:03:00.692Z,98244.40
2022-10-19T14:05:52.732Z,98241.40
2022-10-19T14:08:44.609Z,98238.40
2022-10-19T14:11:24.903Z,98234.00
2022-10-19T14:14:11.842Z,98235.20
2022-10-19T14:16:59.892Z,98238.40
2022-10-19T14:19:41.134Z,98233.00
2022-10-19T14:22:33.920Z,98232.60
2022-10-19T14:25:28.183Z,98230.60
2022-10-19T14:28:06.734Z,98226.80
2022-10-19T14:30:37.216Z,98221.60
2022-10-19T14:33:11.362Z,98222.60
2022-10-19T14:35:43.483Z,98217.20
2022-10-19T14:38:21.592Z,98221.80
2022-10-19T14:40:48.447Z,98222.40
2022-10-19T14:43:32.194Z,98217.00
2022-10-19T14:46:08.333Z,98217.20
2022-10-19T14:48:39.179Z,98214.20
2022-10-19T14:51:36.731Z,98210.80
2022-10-19T14:54:08.102Z,98206.60
2022-10-19T14:56:41.627Z,98208.40
2022-10-19T14:59:39.919Z,98211.20
2022-10-19T15:02:42.758Z,98211.20
2022-10-19T15:05:22.432Z,98208.80
2022-10-19T15:07:50.172Z,98207.80
2022-10-19T15:10:29.354Z,98210.00
2022-10-19T15:13:03.906Z,98210.00
2022-10-19T15:15:34.538Z,98206.00
2022-10-19T15:18:01.331Z,98209.00
2022-10-19T15:20:44.177Z,98204.20
2022-10-19T15:23:38.298Z,98205.60
2022-10-19T15:26:26.542Z,98205.60
2022-10-19T15:29:06.928Z,98206.40
2022-10-19T15:31:33.941Z,98208.00
2022-10-19T15:34:03.751Z,98210.00
2022-10-19T15:36:32.847Z,98215.60
2022-10-19T15:39:25.171Z,98213.80
2022-10-19T15:41:55.825Z,98208.80
2022-10-19T15:44:42.123Z,98210.00
2022-10-19T15:47:15.250Z,98218.80
2022-10-19T15:49:42.145Z,98215.00
2022-10-19T15:52:38.287Z,98218.60
2022-10-19T15:55:05.839Z,98217.00
2022-10-19T15:57:38.949Z,98215.20
2022-10-19T16:00:15.771Z,98216.00
2022-10-19T16:02:42.858Z,98217.80
2022-10-19T16:05:11.079Z,98219.60
2022-10-19T16:07:41.321Z,98217.20
2022-10-19T16:10:17.356Z,98213.00
2022-10-19T16:12:44.590Z,98212.60
2022-10-19T16:15:22.206Z,98215.00
2022-10-19T16:17:57.919Z,98222.80
2022-10-19T16:20:28.147Z,98218.40
2022-10-19T16:22:55.795Z,98219.40
2022-10-19T16:25:23.147Z,98226.20
2022-10-19T16:27:51.126Z,98223.00
2022-10-19T16:30:18.966Z,98218.80
2022-10-19T16:32:49.346Z,98218.80
2022-10-19T16:35:16.766Z,98216.40
2022-10-19T16:37:43.587Z,98223.20
2022-10-19T16:40:12.347Z,98229.40
2022-10-19T16:42:39.748Z,98234.80
2022-10-19T16:45:08.155Z,98238.00
2022-10-19T16:47:35.577Z,98237.20
2022-10-19T16:50:05.901Z,98235.40
2022-10-19T16:52:34.467Z,98233.20
2022-10-19T16:55:02.755Z,98238.60
2022-10-19T16:57:30.410Z,98240.80
2022-10-19T16:59:57.820Z,98243.40
2022-10-19T17:02:25.134Z,98251.60
2022-10-19T17:04:52.699Z,98251.60
2022-10-19T17:07:19.846Z,98251.20
2022-10-19T17:09:49.697Z,98250.60
2022-10-19T17:12:20.232Z,98254.20
2022-10-19T17:14:48.050Z,98254.20
2022-10-19T17:17:17.277Z,98254.00
2022-10-19T17:19:45.249Z,98253.80
2022-10-19T17:22:12.985Z,98255.00
2022-10-19T17:24:41.033Z,98259.40
2022-10-19T17:27:09.018Z,98264.20
2022-10-19T17:29:37.484Z,98270.40
2022-10-19T17:32:05.573Z,98270.40
2022-10-19T17:34:33.378Z,98272.40
2022-10-19T17:37:00.486Z,98271.20
2022-10-19T17:39:29.923Z,98272.40
2022-10-19T17:42:03.489Z,98275.80
2022-10-19T17:44:32.026Z,98277.60
2022-10-19T17:47:00.868Z,98280.60
2022-10-19T17:49:30.091Z,98282.80
2022-10-19T17:51:57.927Z,98282.40
2022-10-19T17:54:25.285Z,98292.20
2022-10-19T17:56:52.674Z,98298.60
2022-10-19T17:59:30.290Z,98311.80
2022-10-19T18:02:05.276Z,98309.40
2022-10-19T18:04:32.691Z,98307.60
2022-10-19T18:07:00.887Z,98306.40
2022-10-19T18:09:27.965Z,98305.00
2022-10-19T18:11:55.184Z,98304.80
2022-10-19T18:14:22.644Z,98300.00
2022-10-19T18:16:52.423Z,98304.80
2022-10-19T18:19:19.729Z,98309.80
2022-10-19T18:21:49.169Z,98307.00
2022-10-19T18:24:20.350Z,98307.00
2022-10-19T18:26:51.057Z,98301.60
2022-10-19T18:29:23.143Z,98310.60
2022-10-19T18:31:53.943Z,98307.40
2022-10-19T18:34:25.379Z,98304.20
2022-10-19T18:36:54.220Z,98313.60
2022-10-19T18:39:22.460Z,98310.60
2022-10-19T18:41:54.901Z,98312.60
2022-10-19T18:44:26.574Z,98312.00
2022-10-19T18:46:55.316Z,98315.00
2022-10-19T18:49:22.738Z,98315.20
2022-10-19T18:51:54.147Z,98320.20
2022-10-19T18:54:24.042Z,98320.80
2022-10-19T18:56:50.991Z,98321.00
2022-10-19T18:59:18.767Z,98325.40
2022-10-19T19:01:45.657Z,98323.80
2022-10-19T19:04:13.691Z,98326.20
2022-10-19T19:06:41.114Z,98322.20
2022-10-19T19:09:12.055Z,98323.00
2022-10-19T19:11:41.800Z,98321.80
2022-10-19T19:14:12.214Z,98326.00
2022-10-19T19:16:41.947Z,98327.00
2022-10-19T19:19:12.815Z,98334.40
2022-10-19T19:21:44.653Z,98338.40
2022-10-19T19:24:19.297Z,98334.20
2022-10-19T19:26:53.291Z,98333.20
2022-10-19T19:29:22.460Z,98334.20
2022-10-19T19:31:50.201Z,98337.20
2022-10-19T19:34:18.186Z,98340.40
2022-10-19T19:36:48.689Z,98344.00
2022-10-19T19:39:19.639Z,98347.20
2022-10-19T19:41:48.965Z,98354.60
2022-10-19T19:44:17.101Z,98357.60
2022-10-19T19:46:43.896Z,98357.00
2022-10-19T19:49:11.424Z,98364.60
2022-10-19T19:51:38.243Z,98360.20
2022-10-19T19:54:05.659Z,98366.60
2022-10-19T19:56:32.981Z,98365.40
2022-10-19T19:59:03.796Z,98361.40
2022-10-19T20:01:32.192Z,98362.00
2022-10-19T20:06:37.005Z,98368.40
2022-10-19T20:09:06.806Z,98369.40
2022-10-19T20:11:37.142Z,98379.40
2022-10-19T20:14:06.749Z,98381.00
2022-10-19T20:16:34.418Z,98375.60
2022-10-19T20:19:09.168Z,98378.40
2022-10-19T20:21:36.385Z,98379.20
2022-10-19T20:24:04.363Z,98383.40
2022-10-19T20:26:31.671Z,98378.60
2022-10-19T20:29:01.129Z,98384.20
2022-10-19T20:33:59.712Z,98386.20
2022-10-19T20:36:27.007Z,98393.00
2022-10-19T20:38:58.891Z,98395.80
2022-10-19T20:41:28.714Z,98395.40
2022-10-19T20:43:56.684Z,98393.40
2022-10-19T20:46:26.997Z,98396.00
2022-10-19T20:48:57.123Z,98398.40
2022-10-19T20:51:30.926Z,98398.00
2022-10-19T20:54:01.763Z,98398.60
2022-10-19T20:56:33.774Z,98399.40
2022-10-19T20:59:17.204Z,98397.80
2022-10-19T21:01:46.409Z,98402.00
2022-10-19T21:04:15.847Z,98406.00
2022-10-19T21:06:46.378Z,98407.80
2022-10-19T21:09:17.223Z,98407.80
2022-10-19T21:11:45.744Z,98411.60
2022-10-19T21:14:16.618Z,98409.20
2022-10-19T21:16:43.669Z,98405.80
2022-10-19T21:19:19.752Z,98407.20
2022-10-19T21:21:51.049Z,98403.60
2022-10-19T21:24:22.291Z,98406.40
2022-10-19T21:26:49.363Z,98404.00
2022-10-19T21:29:17.188Z,98402.80
2022-10-19T21:31:49.043Z,98400.20
2022-10-19T21:34:21.950Z,98402.80
2022-10-19T21:36:49.844Z,98401.60
2022-10-19T21:39:17.751Z,98400.60
2022-10-19T21:41:45.228Z,98402.80
2022-10-19T21:44:12.223Z,98405.40
2022-10-19T21:46:40.235Z,98407.80
2022-10-19T21:49:07.080Z,98412.00
2022-10-19T21:51:53.754Z,98413.80
2022-10-19T21:54:29.251Z,98411.20
2022-10-19T21:56:57.804Z,98406.40
2022-10-19T21:59:25.479Z,98409.20
2022-10-19T22:01:54.674Z,98407.40
2022-10-19T22:04:22.541Z,98405.00
2022-10-19T22:06:49.489Z,98404.80
2022-10-19T22:09:20.242Z,98408.60
2022-10-19T22:11:47.578Z,98413.60
2022-10-19T22:14:16.667Z,98413.60
2022-10-19T22:16:44.236Z,98412.40
2022-10-19T22:19:12.078Z,98410.20
2022-10-19T22:21:39.911Z,98402.60
2022-10-19T22:24:12.830Z,98402.40
2022-10-19T22:26:47.297Z,98397.40
2022-10-19T22:29:14.730Z,98400.40
2022-10-19T22:31:42.411Z,98395.80
2022-10-19T22:34:17.129Z,98396.40
2022-10-19T22:36:45.223Z,98395.40
2022-10-19T22:39:13.269Z,98391.80
2022-10-19T22:41:39.990Z,98388.80
2022-10-19T22:44:06.842Z,98387.20
2022-10-19T22:46:33.723Z,98389.00
2022-10-19T22:49:00.690Z,98391.40
2022-10-19T22:51:27.688Z,98386.60
2022-10-19T22:53:54.697Z,98387.60
2022-10-19T22:56:21.863Z,98387.20
2022-10-19T22:58:48.807Z,98382.00
2022-10-19T23:01:16.862Z,98379.00
2022-10-19T23:03:44.148Z,98374.40
2022-10-19T23:06:15.473Z,98371.20
2022-10-19T23:08:44.342Z,98373.40
2022-10-19T23:11:12.427Z,98371.80
2022-10-19T23:13:39.819Z,98370.20
2022-10-19T23:16:07.643Z,98371.60
2022-10-19T23:18:38.582Z,98372.20
2022-10-19T23:21:11.133Z,98372.40
2022-10-19T23:23:39.359Z,98370.40
2022-10-19T23:26:12.452Z,98371.60
2022-10-19T23:28:44.619Z,98365.40
2022-10-19T23:31:26.082Z,98364.60
2022-10-19T23:33:53.979Z,98355.20
2022-10-19T23:36:26.995Z,98351.60
2022-10-19T23:38:56.526Z,98349.00
2022-10-19T23:41:24.312Z,98351.20
2022-10-19T23:43:51.554Z,98352.40
2022-10-19T23:46:18.604Z,98350.80
2022-10-19T23:48:45.435Z,98352.20
2022-10-19T23:51:16.796Z,98350.60
2022-10-19T23:53:46.811Z,98351.80
2022-10-19T23:56:25.849Z,98353.00
2022-10-19T23:58:53.699Z,98343.80
